Time;durP1;ratioP1;P1;durP2;ratioP2;P2;SDS_P1;SDS_P2;PMS_P1;PMS_P2;Temp;Humidity;BMP_temperature;BMP_pressure;BME280_temperature;BME280_humidity;BME280_pressure;Samples;Min_cycle;Max_cycle;Signal;HPM_P1;HPM_P2
2022/11/26 00:04:57;;;;;;;15.63;9.70;;;9.80;46.80;;;;;;10395791;28;20237;-73
2022/11/26 00:10:01;;;;;;;11.50;8.63;;;9.80;46.90;;;;;;10396454;28;20610;-74
2022/11/26 00:15:15;;;;;;;15.27;7.40;;;9.80;46.90;;;;;;10397664;28;20268;-74
2022/11/26 00:20:20;;;;;;;14.87;9.03;;;9.70;47.40;;;;;;10394295;28;20280;-74
2022/11/26 00:25:26;;;;;;;13.37;8.37;;;9.70;47.20;;;;;;10394475;28;20240;-74
2022/11/26 00:30:31;;;;;;;13.47;7.47;;;9.70;47.40;;;;;;10393015;28;20283;-74
2022/11/26 00:35:34;;;;;;;6.17;4.17;;;9.70;47.50;;;;;;10395880;28;20603;-70
2022/11/26 00:40:37;;;;;;;7.37;3.97;;;9.70;47.50;;;;;;10395317;28;20771;-68
2022/11/26 00:45:42;;;;;;;8.50;3.63;;;9.70;47.60;;;;;;10395779;28;20709;-69
2022/11/26 00:50:48;;;;;;;6.00;3.47;;;9.80;48.00;;;;;;10392358;28;20241;-68
2022/11/26 00:55:52;;;;;;;8.80;3.60;;;9.80;48.10;;;;;;10402944;28;20761;-68
2022/11/26 01:00:58;;;;;;;6.87;3.00;;;9.90;47.80;;;;;;10404691;28;20237;-69
2022/11/26 01:06:01;;;;;;;6.50;3.33;;;9.90;48.00;;;;;;10401845;28;20229;-68
2022/11/26 01:11:05;;;;;;;4.97;3.37;;;10.00;46.80;;;;;;10404727;28;20260;-69
2022/11/26 01:16:18;;;;;;;5.20;3.07;;;10.00;46.80;;;;;;10401521;28;20611;-68
2022/11/26 01:21:22;;;;;;;8.93;3.60;;;10.00;47.30;;;;;;10402230;28;20237;-68
2022/11/26 01:26:27;;;;;;;4.70;3.07;;;9.90;47.70;;;;;;10404493;28;20233;-68
2022/11/26 01:31:33;;;;;;;8.60;3.17;;;10.00;47.00;;;;;;10401234;28;20249;-68
2022/11/26 01:36:37;;;;;;;6.70;3.40;;;10.00;47.80;;;;;;10403216;28;20320;-68
2022/11/26 01:41:45;;;;;;;5.47;3.07;;;10.00;47.00;;;;;;10401009;28;20240;-68
2022/11/26 01:46:50;;;;;;;7.20;3.10;;;10.10;47.10;;;;;;10402887;28;20225;-68
2022/11/26 01:52:02;;;;;;;5.03;2.80;;;10.10;47.00;;;;;;10395062;28;20237;-68
2022/11/26 01:57:09;;;;;;;6.17;2.87;;;10.10;47.20;;;;;;10400177;28;20229;-68
2022/11/26 02:02:14;;;;;;;7.20;3.13;;;10.20;47.00;;;;;;10400184;28;20966;-68
2022/11/26 02:07:17;;;;;;;5.50;2.63;;;10.20;47.00;;;;;;10399997;28;20225;-68
2022/11/26 02:12:21;;;;;;;5.33;2.60;;;10.20;46.80;;;;;;10402790;28;20285;-68
2022/11/26 02:17:33;;;;;;;5.93;2.83;;;10.20;47.40;;;;;;10397786;28;20659;-69
2022/11/26 02:23:16;;;;;;;8.53;3.27;;;10.20;47.00;;;;;;10402462;28;20229;-68
2022/11/26 02:28:38;;;;;;;8.90;3.37;;;10.20;47.20;;;;;;10402935;28;20225;-66
2022/11/26 02:33:49;;;;;;;12.90;3.37;;;10.20;47.00;;;;;;10398207;28;20230;-66
2022/11/26 02:38:52;;;;;;;6.83;3.67;;;10.20;47.00;;;;;;10401705;28;20705;-66
2022/11/26 02:43:55;;;;;;;9.77;4.00;;;10.10;46.70;;;;;;10397468;28;20233;-66
2022/11/26 02:49:00;;;;;;;7.57;3.57;;;10.10;46.90;;;;;;10398184;28;20230;-66
2022/11/26 02:54:06;;;;;;;9.37;3.20;;;10.20;47.10;;;;;;10395178;28;20229;-66
2022/11/26 02:59:10;;;;;;;6.70;3.27;;;10.10;47.00;;;;;;10397912;28;20771;-66
2022/11/26 03:04:19;;;;;;;5.70;2.97;;;10.10;46.90;;;;;;10400401;28;20231;-75
2022/11/26 03:09:23;;;;;;;7.50;4.40;;;10.10;47.30;;;;;;10400472;28;20291;-74
2022/11/26 03:14:26;;;;;;;4.33;3.10;;;10.10;46.90;;;;;;10394644;28;20238;-74
2022/11/26 03:19:31;;;;;;;4.63;3.23;;;10.10;46.90;;;;;;10399873;28;20226;-74
2022/11/26 03:24:34;;;;;;;8.03;3.60;;;10.10;47.00;;;;;;10395893;28;20283;-74
2022/11/26 03:29:37;;;;;;;8.63;3.10;;;10.10;46.80;;;;;;10397990;28;20279;-74
2022/11/26 03:34:42;;;;;;;6.57;3.10;;;10.10;46.90;;;;;;10397530;28;20225;-74
2022/11/26 03:39:45;;;;;;;5.80;2.97;;;10.10;47.00;;;;;;10398174;28;20487;-74
2022/11/26 03:44:49;;;;;;;5.97;3.30;;;10.10;46.90;;;;;;10392551;28;20238;-76
2022/11/26 03:49:53;;;;;;;7.17;3.50;;;10.10;46.90;;;;;;10396391;28;20225;-68
2022/11/26 03:54:56;;;;;;;7.13;3.53;;;10.00;47.10;;;;;;10391710;28;20234;-68
2022/11/26 03:59:59;;;;;;;8.13;3.50;;;10.00;47.00;;;;;;10394557;28;20267;-68
2022/11/26 04:05:05;;;;;;;4.97;3.00;;;10.00;47.00;;;;;;10395103;28;20741;-68
2022/11/26 04:10:09;;;;;;;3.93;3.00;;;10.00;47.20;;;;;;10398627;28;20230;-68
2022/11/26 04:15:12;;;;;;;9.33;3.53;;;10.10;47.20;;;;;;10397862;28;20244;-69
2022/11/26 04:20:17;;;;;;;4.77;3.00;;;10.10;47.10;;;;;;10398610;28;20276;-68
2022/11/26 04:25:20;;;;;;;7.23;3.30;;;10.10;47.20;;;;;;10395803;28;20237;-68
2022/11/26 04:30:23;;;;;;;8.47;3.57;;;10.20;47.10;;;;;;10397257;28;20819;-73
2022/11/26 04:35:28;;;;;;;5.97;2.87;;;10.20;46.90;;;;;;10394602;28;20239;-76
2022/11/26 04:40:31;;;;;;;6.30;3.30;;;10.20;47.10;;;;;;10393481;28;20225;-74
2022/11/26 04:45:34;;;;;;;5.07;3.00;;;10.20;46.90;;;;;;10396511;28;20252;-74
2022/11/26 04:50:38;;;;;;;7.47;3.40;;;10.20;46.80;;;;;;10395139;28;20229;-75
2022/11/26 04:55:42;;;;;;;5.43;3.10;;;10.20;46.90;;;;;;10397385;28;20233;-74
2022/11/26 05:00:46;;;;;;;4.90;2.80;;;10.20;46.80;;;;;;10394219;28;20317;-74
2022/11/26 05:05:54;;;;;;;6.23;3.60;;;10.20;46.80;;;;;;10396268;28;20243;-74
2022/11/26 05:11:00;;;;;;;7.47;3.67;;;10.20;46.90;;;;;;10394911;28;20241;-74
2022/11/26 05:16:03;;;;;;;8.43;3.60;;;10.20;46.90;;;;;;10393414;28;20233;-73
2022/11/26 05:21:08;;;;;;;5.17;3.63;;;10.20;46.90;;;;;;10396749;28;20237;-72
2022/11/26 05:26:11;;;;;;;6.57;3.57;;;10.20;46.90;;;;;;10390282;28;20229;-74
2022/11/26 05:31:15;;;;;;;6.43;3.40;;;10.20;46.90;;;;;;10393436;28;20230;-68
2022/11/26 05:36:19;;;;;;;6.17;3.40;;;10.20;46.90;;;;;;10394048;28;20230;-68
2022/11/26 05:41:22;;;;;;;5.90;3.20;;;10.20;46.90;;;;;;10399758;28;20599;-68
2022/11/26 05:46:25;;;;;;;8.33;3.90;;;10.20;46.80;;;;;;10400977;28;20672;-69
2022/11/26 05:51:30;;;;;;;6.13;3.37;;;10.20;46.90;;;;;;10399794;28;20698;-68
2022/11/26 05:56:33;;;;;;;5.83;3.30;;;10.20;47.00;;;;;;10400644;28;20230;-70
2022/11/26 06:01:37;;;;;;;6.50;3.53;;;10.20;47.60;;;;;;10400844;28;20237;-68
2022/11/26 06:06:41;;;;;;;5.83;3.37;;;10.20;46.90;;;;;;10400023;28;20249;-68
2022/11/26 06:11:44;;;;;;;5.43;3.33;;;10.20;47.10;;;;;;10401250;28;20232;-68
2022/11/26 06:16:47;;;;;;;5.87;3.50;;;10.20;47.10;;;;;;10401401;28;20230;-74
2022/11/26 06:21:52;;;;;;;7.40;3.63;;;10.20;47.00;;;;;;10400317;28;20217;-74
2022/11/26 06:26:55;;;;;;;6.13;4.03;;;10.20;47.20;;;;;;10399304;28;20222;-74
2022/11/26 06:31:58;;;;;;;6.00;3.40;;;10.30;47.20;;;;;;10399779;28;20230;-74
2022/11/26 06:37:03;;;;;;;4.80;3.40;;;10.30;47.30;;;;;;10399207;28;20229;-70
2022/11/26 06:42:06;;;;;;;7.17;3.90;;;10.30;47.50;;;;;;10400007;28;20240;-74
2022/11/26 06:47:11;;;;;;;9.27;4.83;;;10.30;47.20;;;;;;10399373;28;20229;-68
2022/11/26 06:52:15;;;;;;;6.47;3.90;;;10.30;47.40;;;;;;10398820;28;20234;-66
2022/11/26 06:57:18;;;;;;;9.90;4.30;;;10.30;47.40;;;;;;10391482;28;20230;-66
2022/11/26 07:02:22;;;;;;;7.53;4.90;;;10.30;47.20;;;;;;10397199;28;20242;-68
2022/11/26 07:07:26;;;;;;;7.73;5.20;;;10.30;47.20;;;;;;10396335;28;21555;-68
2022/11/26 07:12:29;;;;;;;7.40;4.93;;;10.30;47.40;;;;;;10395291;28;20275;-68
2022/11/26 07:17:33;;;;;;;9.47;5.07;;;10.30;47.20;;;;;;10398419;28;20233;-69
2022/11/26 07:22:37;;;;;;;6.63;4.50;;;10.30;47.20;;;;;;10397800;28;20246;-68
2022/11/26 07:27:40;;;;;;;8.73;4.90;;;10.30;47.40;;;;;;10395517;28;20218;-68
2022/11/26 07:32:44;;;;;;;5.87;4.70;;;10.30;47.40;;;;;;10397237;28;20264;-66
2022/11/26 07:37:48;;;;;;;4.97;4.10;;;10.30;47.40;;;;;;10392602;28;20710;-68
2022/11/26 07:42:51;;;;;;;7.10;4.20;;;10.30;47.50;;;;;;10395111;28;20709;-68
2022/11/26 07:47:55;;;;;;;6.97;3.73;;;10.30;47.40;;;;;;10394655;28;20875;-68
2022/11/26 07:53:00;;;;;;;7.63;4.50;;;10.40;47.50;;;;;;10392944;28;20225;-68
2022/11/26 07:58:03;;;;;;;7.70;5.40;;;10.30;47.50;;;;;;10393528;28;20217;-67
2022/11/26 08:03:06;;;;;;;12.83;8.23;;;10.40;47.50;;;;;;10394338;28;20230;-74
2022/11/26 08:08:11;;;;;;;12.93;9.50;;;10.40;47.40;;;;;;10389511;28;20225;-73
2022/11/26 08:13:15;;;;;;;11.50;9.07;;;10.40;47.60;;;;;;10393137;28;20276;-74
2022/11/26 08:18:18;;;;;;;11.07;8.20;;;10.40;47.50;;;;;;10397465;28;20267;-74
2022/11/26 08:23:22;;;;;;;8.70;6.37;;;10.40;47.50;;;;;;10394160;28;20229;-74
2022/11/26 08:28:25;;;;;;;9.30;6.10;;;10.40;47.80;;;;;;10396334;28;20241;-68
2022/11/26 08:33:29;;;;;;;8.40;6.27;;;10.40;47.60;;;;;;10392816;28;20599;-74
2022/11/26 08:38:33;;;;;;;9.70;5.50;;;10.40;47.60;;;;;;10391222;28;20242;-74
2022/11/26 08:43:37;;;;;;;7.87;5.53;;;10.50;48.00;;;;;;10395462;28;20253;-74
2022/11/26 08:49:00;;;;;;;8.20;5.87;;;10.50;47.50;;;;;;10394004;28;20264;-68
2022/11/26 08:54:05;;;;;;;7.70;5.50;;;10.60;47.60;;;;;;10392862;28;20713;-68
2022/11/26 08:59:08;;;;;;;7.63;5.40;;;10.60;47.70;;;;;;10385841;28;20784;-68
2022/11/26 09:04:11;;;;;;;7.87;5.53;;;10.60;47.50;;;;;;10388989;28;20221;-67
2022/11/26 09:09:16;;;;;;;6.50;5.23;;;10.70;47.60;;;;;;10389056;28;20721;-68
2022/11/26 09:14:21;;;;;;;8.83;5.90;;;10.70;47.70;;;;;;10394019;28;20237;-68
2022/11/26 09:19:25;;;;;;;8.57;5.67;;;10.70;47.70;;;;;;10401461;28;20792;-68
2022/11/26 09:24:29;;;;;;;6.60;5.27;;;10.80;47.60;;;;;;10395669;28;20283;-74
2022/11/26 09:29:32;;;;;;;6.97;4.90;;;10.80;47.60;;;;;;10401369;28;20228;-74
2022/11/26 09:34:36;;;;;;;8.10;4.93;;;10.80;47.30;;;;;;10396416;28;20245;-74
2022/11/26 09:39:40;;;;;;;8.00;5.47;;;10.80;47.40;;;;;;10402001;28;20221;-74
2022/11/26 09:45:02;;;;;;;8.40;5.20;;;10.80;47.40;;;;;;10399812;28;20632;-74
2022/11/26 09:50:17;;;;;;;6.60;5.00;;;10.80;47.80;;;;;;10400700;28;20233;-74
2022/11/26 09:55:24;;;;;;;10.50;5.40;;;10.80;47.70;;;;;;10402348;28;20218;-74
2022/11/26 10:00:29;;;;;;;11.20;5.40;;;10.80;48.00;;;;;;10399185;28;20240;-74
2022/11/26 10:05:47;;;;;;;7.53;5.33;;;10.80;47.90;;;;;;10404889;28;20225;-73
2022/11/26 10:10:56;;;;;;;7.37;5.63;;;10.90;48.60;;;;;;10402228;28;20225;-66
2022/11/26 10:16:12;;;;;;;9.60;6.17;;;11.00;48.80;;;;;;10397427;28;20221;-66
2022/11/26 10:21:24;;;;;;;15.83;6.97;;;11.00;48.70;;;;;;10396844;28;20236;-68
2022/11/26 10:26:49;;;;;;;9.83;6.53;;;11.10;47.90;;;;;;10398324;28;20250;-68
2022/11/26 10:31:57;;;;;;;10.20;6.83;;;11.20;47.70;;;;;;10396026;28;20275;-74
2022/11/26 10:37:00;;;;;;;9.60;6.90;;;11.20;47.90;;;;;;10399255;28;20234;-76
2022/11/26 10:42:10;;;;;;;10.10;6.60;;;11.20;48.00;;;;;;10395605;28;20229;-74
2022/11/26 10:47:27;;;;;;;11.00;6.80;;;11.30;48.10;;;;;;10397539;28;20275;-74
2022/11/26 10:52:33;;;;;;;7.97;6.30;;;11.30;47.40;;;;;;10396512;28;20225;-66
2022/11/26 10:57:46;;;;;;;9.50;6.63;;;11.40;47.40;;;;;;10398079;28;20226;-66
2022/11/26 11:02:49;;;;;;;10.23;6.90;;;11.40;47.30;;;;;;10396016;28;20225;-66
2022/11/26 11:07:53;;;;;;;10.13;6.83;;;11.50;47.50;;;;;;10392864;28;20229;-66
2022/11/26 11:13:11;;;;;;;10.33;6.80;;;11.50;47.40;;;;;;10397632;28;20875;-69
2022/11/26 11:18:19;;;;;;;9.13;6.90;;;11.60;47.30;;;;;;10395634;28;20220;-69
2022/11/26 11:23:24;;;;;;;10.23;8.20;;;11.60;47.30;;;;;;10399742;28;20234;-68
2022/11/26 11:28:51;;;;;;;9.20;7.87;;;11.70;47.20;;;;;;10395103;28;20217;-67
2022/11/26 11:34:12;;;;;;;7.73;6.10;;;11.70;47.00;;;;;;10396371;28;20694;-67
2022/11/26 11:39:29;;;;;;;6.83;5.37;;;11.70;46.10;;;;;;10396637;28;20225;-68
2022/11/26 11:44:38;;;;;;;7.83;5.73;;;11.70;45.30;;;;;;10398309;28;20229;-74
2022/11/26 11:49:58;;;;;;;7.10;5.20;;;11.80;46.20;;;;;;10396176;28;20244;-69
2022/11/26 11:55:13;;;;;;;6.93;5.63;;;11.80;46.00;;;;;;10392769;28;20233;-69
2022/11/26 12:00:20;;;;;;;7.93;5.23;;;11.80;46.00;;;;;;10394570;28;20308;-69
2022/11/26 12:05:45;;;;;;;7.23;5.70;;;11.90;46.10;;;;;;10394794;28;20682;-69
2022/11/26 12:10:58;;;;;;;6.40;5.60;;;11.90;45.20;;;;;;10390778;28;20225;-67
2022/11/26 12:16:08;;;;;;;6.73;5.70;;;11.90;45.20;;;;;;10392830;28;20647;-69
2022/11/26 12:21:13;;;;;;;8.30;6.60;;;11.90;45.00;;;;;;10390907;28;20820;-68
2022/11/26 12:26:22;;;;;;;8.77;6.30;;;11.90;45.60;;;;;;10395643;28;20221;-68
2022/11/26 12:31:33;;;;;;;9.83;6.97;;;11.90;45.60;;;;;;10395393;28;20263;-68
2022/11/26 12:36:43;;;;;;;8.50;6.67;;;11.90;45.40;;;;;;10396273;28;20782;-68
2022/11/26 12:41:51;;;;;;;7.77;5.53;;;11.90;45.20;;;;;;10395179;28;20248;-68
2022/11/26 12:47:04;;;;;;;8.13;6.07;;;12.00;45.30;;;;;;10388702;28;20229;-74
2022/11/26 12:52:31;;;;;;;7.20;5.30;;;12.00;45.60;;;;;;10397876;28;20222;-67
2022/11/26 12:57:39;;;;;;;7.37;5.47;;;12.00;45.70;;;;;;10403638;28;20740;-69
2022/11/26 13:02:47;;;;;;;7.20;5.30;;;12.00;45.60;;;;;;10402013;28;20234;-66
2022/11/26 13:08:07;;;;;;;7.73;5.87;;;12.00;46.00;;;;;;10403098;28;20237;-67
2022/11/26 13:13:17;;;;;;;8.70;6.03;;;12.10;45.20;;;;;;10400997;28;20221;-66
2022/11/26 13:18:30;;;;;;;8.07;5.70;;;12.10;45.40;;;;;;10404911;28;20225;-66
2022/11/26 13:23:48;;;;;;;8.33;6.30;;;12.00;45.40;;;;;;10401714;28;20694;-66
2022/11/26 13:29:11;;;;;;;9.73;6.17;;;12.00;45.10;;;;;;10400967;28;20279;-66
2022/11/26 13:34:37;;;;;;;9.00;6.20;;;12.00;45.10;;;;;;10401752;28;20247;-66
2022/11/26 13:40:13;;;;;;;8.43;6.90;;;12.00;45.20;;;;;;10402398;28;20253;-66
2022/11/26 13:45:53;;;;;;;9.57;7.37;;;12.00;45.20;;;;;;10375815;28;20221;-67
2022/11/26 13:51:00;;;;;;;7.00;5.97;;;12.00;44.80;;;;;;10398896;28;20228;-69
2022/11/26 13:56:05;;;;;;;8.17;6.03;;;12.00;45.40;;;;;;10399834;28;20225;-69
2022/11/26 14:01:29;;;;;;;8.83;7.10;;;12.00;45.50;;;;;;10396192;28;20225;-69
2022/11/26 14:06:35;;;;;;;8.77;6.23;;;12.00;44.50;;;;;;10396929;28;20261;-69
2022/11/26 14:11:59;;;;;;;9.73;6.67;;;12.10;45.10;;;;;;10396007;28;20279;-69
2022/11/26 14:17:17;;;;;;;8.30;6.20;;;12.10;44.80;;;;;;10400165;28;20221;-69
2022/11/26 14:22:29;;;;;;;8.13;5.80;;;12.20;44.30;;;;;;10386455;28;20948;-69
2022/11/26 14:27:34;;;;;;;8.73;5.83;;;12.20;44.40;;;;;;10383157;28;20221;-69
2022/11/26 14:32:41;;;;;;;6.60;6.00;;;12.20;45.00;;;;;;10387728;28;20284;-69
2022/11/26 14:37:53;;;;;;;8.27;5.60;;;12.30;44.80;;;;;;10385613;28;20591;-67
2022/11/26 14:43:14;;;;;;;6.93;6.20;;;12.30;44.50;;;;;;10392517;28;21197;-66
2022/11/26 14:48:23;;;;;;;5.33;4.83;;;12.30;44.10;;;;;;10385639;28;20226;-70
2022/11/26 14:53:30;;;;;;;8.37;6.17;;;12.30;44.20;;;;;;10384934;28;20682;-74
2022/11/26 14:58:37;;;;;;;6.93;5.00;;;12.30;44.20;;;;;;10391314;28;20267;-70
2022/11/26 15:03:41;;;;;;;8.23;5.70;;;12.30;44.40;;;;;;10390134;28;20568;-69
2022/11/26 15:08:45;;;;;;;9.10;6.27;;;12.20;44.40;;;;;;10385706;28;20233;-70
2022/11/26 15:13:48;;;;;;;9.37;7.93;;;12.20;44.30;;;;;;10391014;28;20237;-75
2022/11/26 15:18:53;;;;;;;6.90;5.90;;;12.10;44.30;;;;;;10387252;28;20862;-75
2022/11/26 15:24:02;;;;;;;9.30;7.20;;;12.00;44.10;;;;;;10387777;28;20276;-68
2022/11/26 15:29:31;;;;;;;9.87;7.33;;;12.00;43.90;;;;;;10386850;28;20233;-68
2022/11/26 15:34:34;;;;;;;8.73;7.17;;;11.90;43.30;;;;;;10388704;28;20226;-68
2022/11/26 15:39:39;;;;;;;9.07;6.40;;;11.80;43.70;;;;;;10392301;28;20261;-68
2022/11/26 15:44:42;;;;;;;7.07;5.67;;;11.70;43.40;;;;;;10393658;28;20632;-68
2022/11/26 15:49:50;;;;;;;6.57;5.00;;;11.50;43.60;;;;;;10392094;28;20222;-68
2022/11/26 15:55:00;;;;;;;4.77;4.07;;;11.40;43.30;;;;;;10393700;28;20880;-74
2022/11/26 16:00:22;;;;;;;7.10;5.43;;;11.30;43.00;;;;;;10388969;28;20225;-74
2022/11/26 16:05:32;;;;;;;6.97;5.60;;;11.20;43.00;;;;;;10392882;28;20261;-74
2022/11/26 16:10:38;;;;;;;18.03;14.37;;;11.10;43.00;;;;;;10384427;28;20284;-74
2022/11/26 16:15:47;;;;;;;17.30;13.40;;;10.90;43.00;;;;;;10382599;28;20787;-66
2022/11/26 16:21:00;;;;;;;12.30;10.73;;;10.70;43.00;;;;;;10388716;28;20236;-67
2022/11/26 16:26:14;;;;;;;11.20;9.73;;;10.60;43.40;;;;;;10387026;28;20232;-67
2022/11/26 16:31:18;;;;;;;11.27;9.37;;;10.40;43.30;;;;;;10389169;28;20213;-74
2022/11/26 16:36:24;;;;;;;11.40;10.30;;;10.40;43.70;;;;;;10389499;28;20240;-74
2022/11/26 16:41:28;;;;;;;13.37;12.10;;;10.30;43.40;;;;;;10386563;28;20228;-69
2022/11/26 16:46:34;;;;;;;14.60;13.17;;;10.30;43.40;;;;;;10385001;28;20248;-69
2022/11/26 16:51:37;;;;;;;13.03;11.20;;;10.20;43.30;;;;;;10383957;28;20698;-67
2022/11/26 16:56:42;;;;;;;16.63;13.67;;;10.00;43.40;;;;;;10389777;28;20233;-69
2022/11/26 17:01:45;;;;;;;14.07;12.57;;;10.00;43.40;;;;;;10387192;28;20275;-69
2022/11/26 17:06:48;;;;;;;15.33;13.73;;;9.90;44.40;;;;;;10389733;28;20606;-69
2022/11/26 17:11:53;;;;;;;28.73;25.37;;;9.80;44.30;;;;;;10388357;28;20765;-69
2022/11/26 17:16:57;;;;;;;26.77;20.73;;;9.70;44.30;;;;;;10389263;28;20287;-69
2022/11/26 17:22:00;;;;;;;82.57;74.47;;;9.70;45.90;;;;;;10391110;28;20221;-69
2022/11/26 17:27:11;;;;;;;34.93;31.23;;;9.70;45.00;;;;;;10388050;28;20667;-69
2022/11/26 17:32:15;;;;;;;18.43;16.53;;;9.70;44.30;;;;;;10388293;28;20245;-70
2022/11/26 17:37:24;;;;;;;18.00;15.60;;;9.70;44.30;;;;;;10397109;28;20316;-69
2022/11/26 17:42:28;;;;;;;15.53;14.03;;;9.70;43.90;;;;;;10395250;28;20233;-69
2022/11/26 17:47:38;;;;;;;13.87;12.33;;;9.60;44.00;;;;;;10395113;28;20323;-69
2022/11/26 17:52:41;;;;;;;14.27;12.87;;;9.60;44.10;;;;;;10395943;28;20225;-69
2022/11/26 17:57:46;;;;;;;12.63;11.40;;;9.50;43.90;;;;;;10396175;28;20233;-69
2022/11/26 18:02:49;;;;;;;11.47;10.30;;;9.40;43.80;;;;;;10395076;28;20237;-69
2022/11/26 18:07:52;;;;;;;12.03;10.87;;;9.40;44.00;;;;;;10395511;28;20280;-69
2022/11/26 18:12:57;;;;;;;13.43;12.20;;;9.40;43.80;;;;;;10393256;28;20304;-69
2022/11/26 18:18:00;;;;;;;14.80;13.30;;;9.30;43.60;;;;;;10396021;28;20729;-69
2022/11/26 18:23:03;;;;;;;13.60;12.30;;;9.20;43.90;;;;;;10394151;28;20230;-72
2022/11/26 18:28:08;;;;;;;18.70;16.97;;;9.20;43.80;;;;;;10394281;28;20250;-70
2022/11/26 18:33:12;;;;;;;22.90;20.20;;;9.10;43.60;;;;;;10398237;28;20252;-70
2022/11/26 18:38:15;;;;;;;23.70;20.83;;;9.00;43.40;;;;;;10396197;28;20217;-70
2022/11/26 18:43:20;;;;;;;18.73;16.83;;;8.90;43.50;;;;;;10391603;28;20237;-70
2022/11/26 18:48:23;;;;;;;15.97;14.37;;;8.70;43.20;;;;;;10397810;28;20225;-70
2022/11/26 18:53:27;;;;;;;42.53;38.20;;;8.60;43.30;;;;;;10397192;28;20234;-70
2022/11/26 18:58:31;;;;;;;23.07;19.63;;;8.40;43.30;;;;;;10396703;28;20222;-71
2022/11/26 19:03:34;;;;;;;16.97;15.27;;;8.30;43.30;;;;;;10397038;28;20729;-71
2022/11/26 19:08:43;;;;;;;19.70;17.77;;;8.20;43.60;;;;;;10396257;28;20305;-71
2022/11/26 19:13:48;;;;;;;18.20;16.40;;;8.20;43.80;;;;;;10393922;28;20226;-68
2022/11/26 19:18:51;;;;;;;17.13;15.40;;;8.20;43.70;;;;;;10399149;28;20222;-68
2022/11/26 19:23:56;;;;;;;17.10;15.30;;;8.10;43.70;;;;;;10396017;28;20233;-68
2022/11/26 19:29:03;;;;;;;17.47;15.00;;;8.10;43.60;;;;;;10394722;28;20226;-75
2022/11/26 19:34:09;;;;;;;17.83;15.97;;;8.10;43.50;;;;;;10395968;28;20690;-73
2022/11/26 19:39:12;;;;;;;18.83;15.57;;;8.00;43.70;;;;;;10395364;28;20221;-73
2022/11/26 19:44:16;;;;;;;19.97;17.97;;;8.00;43.70;;;;;;10389438;28;21023;-73
2022/11/26 19:49:19;;;;;;;19.20;17.17;;;8.00;43.40;;;;;;10397669;28;20225;-74
2022/11/26 19:54:23;;;;;;;14.67;13.17;;;7.90;43.40;;;;;;10394397;28;20233;-74
2022/11/26 19:59:27;;;;;;;14.87;13.47;;;7.90;43.70;;;;;;10394654;28;20728;-74
2022/11/26 20:04:30;;;;;;;15.63;14.07;;;7.80;43.50;;;;;;10390978;28;20267;-74
2022/11/26 20:09:34;;;;;;;15.77;14.17;;;7.80;43.80;;;;;;10390931;28;20344;-74
2022/11/26 20:14:38;;;;;;;15.83;13.93;;;7.70;43.70;;;;;;10389623;28;20240;-74
2022/11/26 20:19:41;;;;;;;13.07;11.77;;;7.70;43.40;;;;;;10393094;28;20738;-74
2022/11/26 20:24:45;;;;;;;12.77;11.50;;;7.70;43.60;;;;;;10391323;28;20226;-74
2022/11/26 20:29:49;;;;;;;12.20;10.97;;;7.60;43.50;;;;;;10387417;28;20221;-74
2022/11/26 20:34:53;;;;;;;13.03;11.77;;;7.60;43.60;;;;;;10385377;28;20244;-69
2022/11/26 20:39:56;;;;;;;10.77;9.67;;;7.50;43.70;;;;;;10386512;28;20329;-69
2022/11/26 20:45:00;;;;;;;12.53;11.40;;;7.50;43.50;;;;;;10385551;28;20291;-69
2022/11/26 20:50:05;;;;;;;11.70;10.50;;;7.50;43.30;;;;;;10388163;28;20225;-69
2022/11/26 20:55:09;;;;;;;13.20;11.37;;;7.40;43.40;;;;;;10386369;28;20236;-69
2022/11/26 21:00:16;;;;;;;18.23;15.00;;;7.40;43.30;;;;;;10384391;28;20237;-69
2022/11/26 21:05:20;;;;;;;15.40;13.43;;;7.30;42.90;;;;;;10386842;28;20234;-69
2022/11/26 21:10:25;;;;;;;13.90;12.50;;;7.20;43.20;;;;;;10389890;28;20630;-69
2022/11/26 21:15:29;;;;;;;18.67;12.93;;;7.10;43.30;;;;;;10394582;28;20605;-69
2022/11/26 21:20:32;;;;;;;21.07;17.87;;;7.10;43.40;;;;;;10390020;28;20261;-69
2022/11/26 21:25:39;;;;;;;24.27;20.40;;;7.00;43.60;;;;;;10397800;28;20280;-69
2022/11/26 21:30:44;;;;;;;17.90;14.43;;;7.00;43.70;;;;;;10394096;28;20222;-69
2022/11/26 21:35:47;;;;;;;25.80;16.30;;;7.00;43.60;;;;;;10394748;28;20748;-69
2022/11/26 21:40:50;;;;;;;16.70;14.77;;;7.00;43.20;;;;;;10394506;28;20637;-69
2022/11/26 21:45:54;;;;;;;14.80;12.97;;;6.90;43.10;;;;;;10395531;28;20225;-69
2022/11/26 21:50:58;;;;;;;13.57;12.00;;;6.70;42.90;;;;;;10392917;28;20698;-69
2022/11/26 21:56:05;;;;;;;11.73;10.53;;;6.60;43.20;;;;;;10394720;28;20222;-70
2022/11/26 22:01:14;;;;;;;10.33;9.33;;;6.40;43.40;;;;;;10393246;28;20222;-70
2022/11/26 22:06:19;;;;;;;23.90;13.23;;;6.30;43.80;;;;;;10391301;28;20222;-69
2022/11/26 22:11:25;;;;;;;12.33;11.07;;;6.30;43.80;;;;;;10392290;28;20292;-70
2022/11/26 22:16:30;;;;;;;11.50;10.40;;;6.30;43.80;;;;;;10393109;28;20596;-70
2022/11/26 22:21:35;;;;;;;12.20;11.00;;;6.30;43.80;;;;;;10390082;28;20967;-70
2022/11/26 22:26:38;;;;;;;11.67;10.37;;;6.30;43.80;;;;;;10394279;28;20781;-71
2022/11/26 22:31:43;;;;;;;12.13;9.73;;;6.30;43.90;;;;;;10389698;28;20245;-70
2022/11/26 22:36:47;;;;;;;12.80;11.43;;;6.40;43.90;;;;;;10391520;28;20236;-70
2022/11/26 22:41:50;;;;;;;12.47;11.17;;;6.40;43.90;;;;;;10390993;28;20233;-70
2022/11/26 22:46:54;;;;;;;25.00;14.77;;;6.40;43.90;;;;;;10391813;28;20756;-70
2022/11/26 22:51:57;;;;;;;15.97;14.27;;;6.40;43.70;;;;;;10387461;28;20240;-71
2022/11/26 22:57:01;;;;;;;11.47;10.13;;;6.30;43.60;;;;;;10392212;28;20786;-71
2022/11/26 23:02:05;;;;;;;11.60;10.40;;;6.30;43.80;;;;;;10390136;28;20313;-71
2022/11/26 23:07:08;;;;;;;12.73;10.90;;;6.20;43.70;;;;;;10391900;28;20253;-71
2022/11/26 23:12:12;;;;;;;13.13;11.30;;;6.20;43.70;;;;;;10390874;28;20229;-71
2022/11/26 23:17:16;;;;;;;10.77;9.77;;;6.20;43.70;;;;;;10391159;28;20225;-70
2022/11/26 23:22:19;;;;;;;23.50;10.43;;;6.10;44.40;;;;;;10391578;28;20229;-70
2022/11/26 23:27:25;;;;;;;13.27;10.67;;;6.00;43.50;;;;;;10389433;28;20233;-70
2022/11/26 23:32:29;;;;;;;19.07;10.93;;;6.00;43.50;;;;;;10393734;28;20929;-68
2022/11/26 23:37:35;;;;;;;31.60;11.03;;;5.90;43.50;;;;;;10395183;28;20226;-75
2022/11/26 23:42:38;;;;;;;15.17;11.80;;;5.80;43.40;;;;;;10396352;28;20232;-75
2022/11/26 23:47:42;;;;;;;25.93;10.67;;;5.70;43.60;;;;;;10397161;28;20233;-75
2022/11/26 23:52:45;;;;;;;24.20;10.57;;;5.70;43.80;;;;;;10393049;28;20221;-75
2022/11/26 23:57:48;;;;;;;10.90;9.67;;;5.60;43.60;;;;;;10395595;28;20271;-75
